Time;durP1;ratioP1;P1;durP2;ratioP2;P2;SDS_P1;SDS_P2;PMS_P1;PMS_P2;Temp;Humidity;BMP_temperature;BMP_pressure;BME280_temperature;BME280_humidity;BME280_pressure;Samples;Min_cycle;Max_cycle;Signal;HPM_P1;HPM_P2
2021/09/01 00:00:25;;;;;;;17.02;5.88;;;15.80;82.10;;;;;;5138520;27;20022;-37
2021/09/01 00:02:51;;;;;;;15.85;6.85;;;15.90;81.70;;;;;;5156626;27;20022;-37
2021/09/01 00:05:16;;;;;;;20.60;6.15;;;16.00;81.50;;;;;;5156546;27;20030;-37
2021/09/01 00:07:42;;;;;;;11.00;4.78;;;15.90;81.90;;;;;;5156515;27;20030;-37
2021/09/01 00:10:09;;;;;;;12.50;6.03;;;15.80;81.80;;;;;;5156426;27;20037;-38
2021/09/01 00:12:36;;;;;;;16.30;5.57;;;15.90;81.70;;;;;;5156446;27;20106;-39
2021/09/01 00:15:02;;;;;;;12.95;5.30;;;15.80;82.00;;;;;;5156352;27;20526;-37
2021/09/01 00:17:28;;;;;;;13.18;5.72;;;15.80;82.20;;;;;;5156466;27;20022;-37
2021/09/01 00:19:53;;;;;;;20.77;6.43;;;15.80;82.10;;;;;;5137629;27;20023;-37
2021/09/01 00:22:19;;;;;;;14.75;6.40;;;15.90;82.00;;;;;;5156437;27;20403;-37
2021/09/01 00:24:44;;;;;;;19.83;6.47;;;15.80;82.40;;;;;;5156375;27;20466;-37
2021/09/01 00:27:10;;;;;;;10.98;6.38;;;15.80;82.60;;;;;;5156132;27;20023;-38
2021/09/01 00:29:36;;;;;;;15.18;6.75;;;15.90;82.30;;;;;;5156105;27;20038;-39
2021/09/01 00:32:04;;;;;;;15.18;7.05;;;15.80;82.50;;;;;;5155966;27;20447;-37
2021/09/01 00:34:29;;;;;;;17.35;7.05;;;15.80;82.90;;;;;;5156130;27;20027;-38
2021/09/01 00:36:55;;;;;;;15.15;7.88;;;15.80;83.70;;;;;;5156286;27;20443;-37
2021/09/01 00:39:21;;;;;;;17.70;6.95;;;15.80;83.30;;;;;;5155883;27;20014;-37
2021/09/01 00:41:46;;;;;;;12.18;6.10;;;15.80;83.50;;;;;;5137565;27;20050;-38
2021/09/01 00:44:22;;;;;;;19.20;8.45;;;15.80;84.00;;;;;;5155747;27;20159;-37
2021/09/01 00:46:50;;;;;;;16.85;7.22;;;15.80;83.70;;;;;;5156058;27;20037;-37
2021/09/01 00:49:16;;;;;;;17.10;7.40;;;15.70;83.90;;;;;;5137216;27;20057;-38
2021/09/01 00:51:43;;;;;;;15.60;7.18;;;15.70;84.00;;;;;;5155634;27;20026;-38
2021/09/01 00:54:11;;;;;;;17.13;6.85;;;15.70;84.30;;;;;;5155453;27;20446;-39
2021/09/01 00:56:36;;;;;;;18.73;7.90;;;15.70;83.80;;;;;;5136960;27;20049;-37
2021/09/01 00:59:02;;;;;;;13.80;7.28;;;15.70;84.40;;;;;;5137616;27;20018;-38
2021/09/01 01:01:28;;;;;;;14.38;6.63;;;15.60;84.40;;;;;;5155296;27;20575;-37
2021/09/01 01:04:00;;;;;;;10.73;6.72;;;15.70;84.00;;;;;;5155225;27;20022;-37
2021/09/01 01:06:30;;;;;;;16.90;8.18;;;15.50;84.30;;;;;;5155200;27;20023;-38
2021/09/01 01:08:56;;;;;;;16.67;7.32;;;15.50;84.60;;;;;;5154786;27;20111;-37
2021/09/01 01:11:24;;;;;;;20.67;6.50;;;15.50;83.60;;;;;;5155161;27;20023;-37
2021/09/01 01:13:51;;;;;;;15.38;6.93;;;15.50;83.80;;;;;;5155367;27;20019;-38
2021/09/01 01:16:19;;;;;;;18.58;6.82;;;15.40;84.10;;;;;;5136525;27;20134;-38
2021/09/01 01:18:49;;;;;;;11.88;6.75;;;15.50;83.90;;;;;;5155199;27;20046;-38
2021/09/01 01:21:19;;;;;;;13.93;7.23;;;15.50;83.50;;;;;;5155086;27;20023;-37
2021/09/01 01:23:56;;;;;;;14.38;6.10;;;15.50;83.80;;;;;;5155255;27;20022;-37
2021/09/01 01:26:22;;;;;;;13.45;5.97;;;15.50;83.90;;;;;;5155169;27;20051;-37
2021/09/01 01:29:09;;;;;;;15.35;7.38;;;15.50;83.60;;;;;;5155051;27;20034;-37
2021/09/01 01:31:39;;;;;;;16.35;8.18;;;15.40;84.00;;;;;;5155286;27;20037;-38
2021/09/01 01:34:12;;;;;;;14.35;6.38;;;15.50;83.80;;;;;;5155162;27;20058;-37
2021/09/01 01:36:37;;;;;;;19.23;7.47;;;15.50;83.80;;;;;;5154799;27;20033;-38
2021/09/01 01:39:03;;;;;;;15.75;6.47;;;15.40;83.90;;;;;;5154895;27;20031;-38
2021/09/01 01:41:29;;;;;;;12.27;6.45;;;15.40;84.00;;;;;;5155087;27;20022;-37
2021/09/01 01:43:54;;;;;;;11.85;6.47;;;15.50;83.70;;;;;;5154763;27;20023;-37
2021/09/01 01:46:20;;;;;;;14.20;6.75;;;15.50;83.20;;;;;;5154946;27;20019;-38
2021/09/01 01:48:45;;;;;;;12.50;6.20;;;15.50;83.40;;;;;;5136070;27;20086;-37
2021/09/01 01:51:11;;;;;;;18.00;8.07;;;15.50;83.40;;;;;;5154674;27;20106;-37
2021/09/01 01:53:37;;;;;;;15.82;7.28;;;15.50;83.60;;;;;;5154663;27;20383;-37
2021/09/01 01:56:03;;;;;;;15.82;5.93;;;15.50;83.00;;;;;;5154621;27;20478;-37
2021/09/01 01:58:28;;;;;;;19.45;6.40;;;15.40;83.50;;;;;;5154429;27;20457;-37
2021/09/01 02:00:54;;;;;;;15.23;6.10;;;15.40;83.70;;;;;;5154600;27;20046;-37
2021/09/01 02:03:19;;;;;;;16.42;6.07;;;15.40;83.10;;;;;;5154611;27;20019;-38
2021/09/01 02:05:45;;;;;;;14.50;5.65;;;15.50;83.20;;;;;;5154623;27;20027;-39
2021/09/01 02:08:11;;;;;;;14.65;6.45;;;15.40;82.70;;;;;;5154789;27;20054;-37
2021/09/01 02:10:36;;;;;;;12.10;6.07;;;15.40;82.90;;;;;;5154698;27;20071;-38
2021/09/01 02:13:02;;;;;;;17.45;6.80;;;15.40;83.00;;;;;;5154978;27;20031;-38
2021/09/01 02:15:29;;;;;;;15.18;6.32;;;15.50;82.40;;;;;;5154484;27;20035;-38
2021/09/01 02:17:55;;;;;;;11.57;5.95;;;15.50;82.20;;;;;;5154294;27;20101;-38
2021/09/01 02:20:21;;;;;;;21.60;6.70;;;15.50;82.10;;;;;;5137553;27;20018;-37
2021/09/01 02:22:47;;;;;;;12.23;6.63;;;15.60;81.80;;;;;;5158636;27;20489;-37
2021/09/01 02:25:14;;;;;;;13.88;5.40;;;15.50;81.10;;;;;;5158458;27;20037;-38
2021/09/01 02:27:40;;;;;;;13.90;6.03;;;15.50;81.30;;;;;;5158714;27;20029;-38
2021/09/01 02:30:07;;;;;;;19.63;5.60;;;15.50;81.20;;;;;;5158804;27;20045;-38
2021/09/01 02:32:33;;;;;;;17.85;5.40;;;15.40;81.60;;;;;;5158499;27;20076;-38
2021/09/01 02:34:59;;;;;;;11.38;5.57;;;15.40;81.90;;;;;;5158432;27;20054;-37
2021/09/01 02:37:25;;;;;;;16.17;5.93;;;15.50;81.40;;;;;;5158632;27;20068;-37
2021/09/01 02:39:50;;;;;;;17.80;5.63;;;15.50;80.90;;;;;;5158364;27;20049;-37
2021/09/01 02:42:16;;;;;;;11.95;5.35;;;15.50;81.10;;;;;;5158584;27;20015;-37
2021/09/01 02:44:41;;;;;;;9.32;4.88;;;15.60;80.40;;;;;;5158270;27;20023;-38
2021/09/01 02:47:07;;;;;;;11.30;5.72;;;15.40;81.10;;;;;;5158427;27;20497;-37
2021/09/01 02:49:33;;;;;;;11.88;5.07;;;15.50;80.90;;;;;;5158010;27;20038;-37
2021/09/01 02:51:59;;;;;;;11.98;5.43;;;15.60;80.60;;;;;;5158254;27;20038;-38
2021/09/01 02:54:24;;;;;;;11.82;4.75;;;15.50;80.70;;;;;;5157819;27;20072;-38
2021/09/01 02:56:50;;;;;;;12.73;5.40;;;15.60;80.60;;;;;;5158072;27;20426;-37
2021/09/01 02:59:16;;;;;;;11.50;5.47;;;15.60;80.80;;;;;;5139498;27;20101;-38
2021/09/01 03:01:41;;;;;;;10.63;5.72;;;15.60;81.20;;;;;;5158084;27;20011;-38
2021/09/01 03:04:07;;;;;;;13.82;5.85;;;15.60;81.50;;;;;;5157703;27;20023;-38
2021/09/01 03:06:33;;;;;;;10.05;5.65;;;15.70;81.40;;;;;;5158074;27;20026;-37
2021/09/01 03:08:58;;;;;;;26.23;7.88;;;15.70;81.00;;;;;;5157921;27;20339;-38
2021/09/01 03:11:24;;;;;;;12.27;5.38;;;15.70;81.60;;;;;;5139102;27;20018;-38
2021/09/01 03:13:50;;;;;;;11.95;5.30;;;15.50;81.90;;;;;;5157640;27;20022;-37
2021/09/01 03:16:15;;;;;;;10.98;5.75;;;15.60;81.80;;;;;;5157920;27;20061;-38
2021/09/01 03:18:41;;;;;;;10.70;5.03;;;15.50;82.10;;;;;;5157680;27;20019;-42
2021/09/01 03:21:09;;;;;;;13.68;5.22;;;15.60;81.60;;;;;;5138964;27;20027;-37
2021/09/01 03:23:35;;;;;;;18.33;6.70;;;15.70;81.80;;;;;;5157676;27;20027;-38
2021/09/01 03:26:00;;;;;;;19.92;6.95;;;15.70;80.60;;;;;;5157304;27;20075;-38
2021/09/01 03:28:26;;;;;;;12.75;5.97;;;15.60;81.20;;;;;;5157486;27;20029;-37
2021/09/01 03:30:52;;;;;;;8.93;5.05;;;15.60;81.10;;;;;;5138614;27;20045;-38
2021/09/01 03:33:17;;;;;;;12.57;4.53;;;15.50;81.30;;;;;;5156865;27;20529;-38
2021/09/01 03:35:43;;;;;;;10.38;5.03;;;15.50;80.80;;;;;;5157480;27;20023;-37
2021/09/01 03:38:08;;;;;;;14.95;5.75;;;15.50;80.90;;;;;;5157037;27;20030;-38
2021/09/01 03:40:34;;;;;;;11.23;4.75;;;15.50;80.50;;;;;;5157166;27;20058;-37
2021/09/01 03:43:00;;;;;;;14.38;4.80;;;15.60;80.90;;;;;;5157026;27;20502;-37
2021/09/01 03:45:25;;;;;;;13.88;4.88;;;15.60;80.50;;;;;;5157013;27;20336;-37
2021/09/01 03:47:51;;;;;;;9.68;4.28;;;15.60;80.20;;;;;;5156888;27;20034;-37
2021/09/01 03:50:16;;;;;;;10.15;4.55;;;15.60;79.80;;;;;;5137762;27;20030;-37
2021/09/01 03:52:42;;;;;;;12.07;5.30;;;15.50;80.50;;;;;;5156437;27;20060;-37
2021/09/01 03:55:09;;;;;;;12.13;5.65;;;15.60;81.20;;;;;;5156415;27;20117;-38
2021/09/01 03:57:36;;;;;;;9.93;4.88;;;15.60;81.30;;;;;;5156168;27;20042;-37
2021/09/01 04:00:07;;;;;;;11.68;5.28;;;15.50;81.70;;;;;;5156282;27;20027;-41
2021/09/01 04:02:33;;;;;;;10.00;4.43;;;15.60;81.10;;;;;;5156361;27;20015;-38
2021/09/01 04:04:58;;;;;;;13.20;4.65;;;15.60;81.50;;;;;;5156388;27;20078;-37
2021/09/01 04:07:24;;;;;;;9.05;5.18;;;15.50;82.20;;;;;;5156234;27;20048;-38
2021/09/01 04:09:49;;;;;;;7.95;4.05;;;15.50;82.00;;;;;;5156335;27;20106;-38
2021/09/01 04:12:15;;;;;;;12.90;4.65;;;15.50;82.00;;;;;;5156255;27;20450;-37
2021/09/01 04:14:41;;;;;;;11.50;5.97;;;15.30;83.10;;;;;;5156285;27;20061;-37
2021/09/01 04:17:06;;;;;;;13.52;4.78;;;15.50;82.30;;;;;;5156104;27;20018;-38
2021/09/01 04:19:32;;;;;;;9.40;4.82;;;15.60;81.90;;;;;;5156133;27;20019;-38
2021/09/01 04:21:58;;;;;;;9.48;5.25;;;15.50;81.90;;;;;;5156310;27;20023;-37
2021/09/01 04:24:23;;;;;;;14.85;5.70;;;15.40;82.50;;;;;;5156332;27;20384;-37
2021/09/01 04:26:49;;;;;;;14.52;5.05;;;15.30;83.30;;;;;;5156007;27;20019;-37
2021/09/01 04:29:16;;;;;;;15.02;6.25;;;15.20;83.50;;;;;;5156034;27;20026;-37
2021/09/01 04:31:42;;;;;;;11.38;4.07;;;15.30;83.20;;;;;;5156213;27;20071;-37
2021/09/01 04:34:08;;;;;;;10.02;4.20;;;15.50;82.10;;;;;;5137283;27;20080;-37
2021/09/01 04:36:33;;;;;;;16.05;5.10;;;15.50;81.80;;;;;;5137348;27;20043;-37
2021/09/01 04:39:00;;;;;;;11.70;5.15;;;15.50;81.00;;;;;;5156188;27;20094;-37
2021/09/01 04:41:26;;;;;;;8.52;5.18;;;15.60;80.50;;;;;;5155825;27;20026;-37
2021/09/01 04:43:52;;;;;;;13.85;5.38;;;15.70;80.30;;;;;;5155026;27;20374;-37
2021/09/01 04:46:17;;;;;;;11.18;4.38;;;15.70;80.30;;;;;;5155576;27;20011;-37
2021/09/01 04:48:43;;;;;;;10.20;4.78;;;15.50;80.80;;;;;;5155849;27;20437;-37
2021/09/01 04:51:08;;;;;;;14.82;5.53;;;15.60;80.50;;;;;;5137108;27;20382;-37
2021/09/01 04:53:34;;;;;;;8.10;4.70;;;15.50;81.00;;;;;;5155317;27;20043;-39
2021/09/01 04:56:00;;;;;;;13.88;5.43;;;15.60;80.50;;;;;;5155787;27;20534;-37
2021/09/01 04:58:26;;;;;;;17.17;6.47;;;15.50;81.30;;;;;;5155640;27;20041;-36
2021/09/01 05:00:51;;;;;;;10.77;4.85;;;15.80;80.40;;;;;;5155477;27;20193;-37
2021/09/01 05:03:17;;;;;;;11.18;5.25;;;15.40;81.60;;;;;;5155598;27;20102;-37
2021/09/01 05:05:43;;;;;;;15.02;5.63;;;15.50;81.70;;;;;;5156076;27;20076;-36
2021/09/01 05:08:08;;;;;;;16.63;6.30;;;15.50;81.60;;;;;;5155252;27;20034;-37
2021/09/01 05:10:34;;;;;;;11.70;5.15;;;15.50;82.00;;;;;;5154916;27;20023;-36
2021/09/01 05:13:00;;;;;;;10.00;6.22;;;15.60;81.60;;;;;;5155260;27;20026;-37
2021/09/01 05:15:26;;;;;;;14.38;6.18;;;15.70;81.30;;;;;;5155638;27;20477;-37
2021/09/01 05:17:52;;;;;;;14.30;5.47;;;15.60;81.70;;;;;;5154991;27;20465;-37
2021/09/01 05:20:18;;;;;;;21.13;6.82;;;15.40;82.40;;;;;;5154892;27;20019;-36
2021/09/01 05:22:48;;;;;;;15.90;5.57;;;15.50;82.70;;;;;;5154976;27;20079;-37
2021/09/01 05:25:16;;;;;;;17.48;6.53;;;15.50;82.40;;;;;;5155001;27;20493;-37
2021/09/01 05:27:44;;;;;;;15.00;6.40;;;15.50;82.90;;;;;;5154777;27;20039;-37
2021/09/01 05:30:13;;;;;;;13.75;6.45;;;15.60;82.30;;;;;;5154815;27;20074;-37
2021/09/01 05:32:40;;;;;;;14.23;6.00;;;15.50;82.50;;;;;;5136287;27;20034;-36
2021/09/01 05:35:07;;;;;;;16.38;6.40;;;15.60;82.70;;;;;;5154530;27;20090;-36
2021/09/01 05:37:33;;;;;;;22.67;6.57;;;15.60;82.30;;;;;;5154834;27;20489;-37
2021/09/01 05:40:02;;;;;;;20.10;7.50;;;15.60;82.80;;;;;;5154474;27;20019;-36
2021/09/01 05:42:30;;;;;;;19.48;7.60;;;15.60;82.40;;;;;;5154472;27;20077;-36
2021/09/01 05:44:57;;;;;;;16.42;5.95;;;15.50;83.40;;;;;;5154599;27;20050;-37
2021/09/01 05:47:25;;;;;;;22.92;7.50;;;15.40;83.50;;;;;;5154779;27;20476;-37
2021/09/01 05:49:53;;;;;;;16.83;5.85;;;15.30;84.10;;;;;;5135927;27;20023;-37
2021/09/01 05:52:19;;;;;;;20.95;7.57;;;15.50;83.60;;;;;;5154297;27;20389;-37
2021/09/01 05:54:47;;;;;;;17.40;7.82;;;15.50;83.40;;;;;;5153621;27;20045;-37
2021/09/01 05:57:28;;;;;;;14.32;6.40;;;15.50;83.50;;;;;;5135544;27;20508;-37
2021/09/01 05:59:55;;;;;;;14.52;5.70;;;15.50;83.30;;;;;;5135781;27;20056;-38
2021/09/01 06:02:30;;;;;;;14.60;5.22;;;15.50;82.90;;;;;;5135543;27;20444;-38
2021/09/01 06:04:59;;;;;;;11.38;5.80;;;15.50;82.80;;;;;;5154187;27;20022;-37
2021/09/01 06:07:27;;;;;;;14.57;5.18;;;15.70;81.90;;;;;;5154414;27;20112;-36
2021/09/01 06:09:57;;;;;;;17.45;5.97;;;15.50;83.00;;;;;;5154052;27;20026;-36
2021/09/01 06:12:26;;;;;;;18.38;5.80;;;15.50;82.40;;;;;;5154156;27;20030;-36
2021/09/01 06:14:52;;;;;;;18.65;5.70;;;15.40;82.50;;;;;;5154330;27;20482;-37
2021/09/01 06:17:18;;;;;;;17.55;6.28;;;15.40;82.70;;;;;;5154629;27;20058;-36
2021/09/01 06:19:44;;;;;;;18.10;6.18;;;15.50;82.40;;;;;;5154292;27;20034;-36
2021/09/01 06:22:10;;;;;;;14.77;5.90;;;15.60;82.30;;;;;;5154025;27;20019;-36
2021/09/01 06:24:36;;;;;;;15.82;7.45;;;15.70;81.70;;;;;;5153749;27;20019;-36
2021/09/01 06:27:03;;;;;;;20.10;5.93;;;15.70;81.80;;;;;;5154035;27;20026;-37
2021/09/01 06:29:29;;;;;;;15.15;6.03;;;15.80;81.30;;;;;;5154208;27;20038;-38
2021/09/01 06:31:55;;;;;;;15.20;5.53;;;15.70;81.40;;;;;;5154022;27;20031;-37
2021/09/01 06:34:21;;;;;;;13.98;5.10;;;15.70;81.80;;;;;;5153914;27;20067;-37
2021/09/01 06:36:47;;;;;;;15.07;6.50;;;15.60;82.40;;;;;;5154506;27;20098;-36
2021/09/01 06:39:12;;;;;;;14.55;6.22;;;15.80;81.60;;;;;;5154077;27;20099;-39
2021/09/01 06:41:39;;;;;;;14.93;7.00;;;15.80;82.10;;;;;;5135204;27;20048;-37
2021/09/01 06:44:05;;;;;;;15.98;7.55;;;15.90;82.00;;;;;;5153603;27;20466;-37
2021/09/01 06:46:30;;;;;;;17.48;6.28;;;15.90;81.90;;;;;;5153902;27;20029;-37
2021/09/01 06:48:59;;;;;;;17.25;7.03;;;15.80;81.70;;;;;;5153710;27;20466;-38
2021/09/01 06:51:25;;;;;;;15.73;6.13;;;15.80;81.10;;;;;;5134872;27;20069;-37
2021/09/01 06:53:57;;;;;;;18.40;6.47;;;15.80;81.60;;;;;;5153400;27;20520;-38
2021/09/01 06:56:22;;;;;;;15.98;5.95;;;15.80;82.10;;;;;;5135582;27;20027;-36
2021/09/01 06:58:48;;;;;;;11.93;6.28;;;15.80;81.50;;;;;;5135063;27;20038;-37
2021/09/01 07:01:14;;;;;;;12.20;6.57;;;15.90;81.60;;;;;;5153770;27;20087;-37
2021/09/01 07:03:39;;;;;;;21.65;6.47;;;15.80;81.90;;;;;;5153426;27;20023;-37
2021/09/01 07:06:05;;;;;;;13.02;6.43;;;15.80;81.60;;;;;;5153019;27;20019;-37
2021/09/01 07:08:31;;;;;;;14.48;7.05;;;16.00;80.80;;;;;;5156934;27;20026;-37
2021/09/01 07:10:56;;;;;;;17.92;6.03;;;16.10;80.90;;;;;;5139435;27;20026;-37
2021/09/01 07:13:22;;;;;;;19.63;6.18;;;16.10;80.50;;;;;;5157801;27;20046;-37
2021/09/01 07:15:48;;;;;;;17.23;6.13;;;16.10;80.60;;;;;;5157863;27;20054;-38
2021/09/01 07:18:15;;;;;;;14.20;5.90;;;16.20;80.20;;;;;;5121481;27;20029;-37
2021/09/01 07:20:41;;;;;;;13.27;5.32;;;16.10;80.40;;;;;;5157402;27;20026;-37
2021/09/01 07:23:07;;;;;;;12.57;5.50;;;16.10;79.40;;;;;;5157469;27;20022;-36
2021/09/01 07:25:33;;;;;;;16.90;6.32;;;16.20;79.60;;;;;;5138456;27;20042;-36
2021/09/01 07:28:00;;;;;;;16.55;5.57;;;16.10;80.10;;;;;;5157331;27;20369;-37
2021/09/01 07:30:26;;;;;;;10.52;5.35;;;16.00;80.60;;;;;;5157009;27;20531;-37
2021/09/01 07:32:52;;;;;;;14.85;6.05;;;16.30;78.80;;;;;;5157390;27;20022;-37
2021/09/01 07:35:18;;;;;;;13.05;5.90;;;16.30;78.60;;;;;;5156989;27;20091;-37
2021/09/01 07:37:45;;;;;;;13.07;6.18;;;16.30;78.90;;;;;;5156854;27;20438;-37
2021/09/01 07:40:13;;;;;;;22.20;6.25;;;16.40;79.10;;;;;;5157009;27;20019;-37
2021/09/01 07:42:39;;;;;;;9.18;6.10;;;16.40;79.10;;;;;;5156406;27;20025;-37
2021/09/01 07:45:05;;;;;;;19.27;7.03;;;16.30;79.50;;;;;;5138149;27;20015;-37
2021/09/01 07:47:30;;;;;;;22.00;6.38;;;16.30;80.00;;;;;;5156603;27;20363;-38
2021/09/01 07:49:56;;;;;;;15.55;6.63;;;16.30;80.10;;;;;;5156991;27;20039;-36
2021/09/01 07:52:22;;;;;;;15.10;6.45;;;16.30;79.80;;;;;;5156607;27;20103;-36
2021/09/01 07:54:47;;;;;;;21.23;7.78;;;16.30;80.30;;;;;;5134870;27;20051;-39
2021/09/01 07:57:13;;;;;;;17.73;7.55;;;16.20;80.50;;;;;;5135031;27;20023;-37
2021/09/01 07:59:39;;;;;;;36.78;12.40;;;16.30;80.90;;;;;;5134321;27;20114;-37
2021/09/01 08:02:04;;;;;;;21.63;8.43;;;16.30;80.40;;;;;;5135339;27;20094;-37
2021/09/01 08:04:30;;;;;;;20.15;7.43;;;16.30;80.60;;;;;;5135141;27;20087;-40
2021/09/01 08:06:56;;;;;;;18.15;8.05;;;16.40;80.60;;;;;;5133915;27;20102;-39
2021/09/01 08:09:22;;;;;;;24.10;8.35;;;16.40;80.30;;;;;;5134388;27;20015;-38
2021/09/01 08:11:47;;;;;;;15.35;7.88;;;16.30;80.20;;;;;;5135521;27;20099;-37
2021/09/01 08:14:14;;;;;;;19.00;6.28;;;16.30;80.10;;;;;;5136986;27;20015;-38
2021/09/01 08:16:39;;;;;;;23.50;10.90;;;16.60;79.40;;;;;;5134642;27;20023;-38
2021/09/01 08:19:05;;;;;;;11.55;5.50;;;16.50;79.80;;;;;;5117259;27;20072;-38
2021/09/01 08:21:31;;;;;;;27.92;8.20;;;16.40;80.10;;;;;;5135272;27;20528;-38
2021/09/01 08:23:56;;;;;;;15.00;7.10;;;16.30;80.30;;;;;;5135732;27;20023;-38
2021/09/01 08:26:22;;;;;;;17.40;6.47;;;16.40;80.10;;;;;;5135128;27;20035;-37
2021/09/01 08:28:49;;;;;;;14.10;6.68;;;16.30;80.10;;;;;;5134882;27;20098;-39
2021/09/01 08:31:16;;;;;;;22.30;6.63;;;16.40;79.80;;;;;;5134897;27;20331;-37
2021/09/01 08:33:42;;;;;;;15.27;5.93;;;16.70;79.00;;;;;;5135231;27;20027;-37
2021/09/01 08:36:07;;;;;;;21.77;7.63;;;16.80;77.90;;;;;;5135181;27;20031;-37
2021/09/01 08:38:33;;;;;;;18.65;7.20;;;16.60;78.90;;;;;;5133912;27;20023;-38
2021/09/01 08:41:00;;;;;;;16.60;6.97;;;16.70;77.90;;;;;;5134153;27;20026;-36
2021/09/01 08:43:26;;;;;;;20.13;7.95;;;16.70;78.00;;;;;;5134442;27;20027;-36
2021/09/01 08:45:51;;;;;;;13.85;6.47;;;16.80;78.10;;;;;;5134712;27;20529;-38
2021/09/01 08:48:18;;;;;;;15.43;5.80;;;16.80;78.20;;;;;;5134496;27;20094;-38
2021/09/01 08:50:44;;;;;;;19.13;8.23;;;17.00;77.50;;;;;;5132625;27;20387;-37
2021/09/01 08:53:10;;;;;;;21.75;6.05;;;17.00;76.70;;;;;;5133569;27;20051;-37
2021/09/01 08:55:36;;;;;;;14.82;5.95;;;17.00;76.80;;;;;;5133846;27;20019;-38
2021/09/01 08:58:02;;;;;;;13.93;5.47;;;17.00;76.80;;;;;;5133993;27;20076;-36
2021/09/01 09:00:28;;;;;;;14.30;4.75;;;16.80;77.30;;;;;;5134025;27;20023;-37
2021/09/01 09:02:55;;;;;;;10.55;4.55;;;16.70;77.20;;;;;;5134669;27;20023;-37
2021/09/01 09:05:35;;;;;;;16.85;5.20;;;16.60;77.60;;;;;;5132546;27;20019;-37
2021/09/01 09:08:01;;;;;;;13.57;7.35;;;16.80;76.90;;;;;;5133919;27;20023;-37
2021/09/01 09:10:34;;;;;;;13.50;4.22;;;16.80;76.30;;;;;;5132297;27;20049;-37
2021/09/01 09:13:07;;;;;;;16.45;4.38;;;17.00;74.70;;;;;;5133848;27;20106;-36
2021/09/01 09:15:34;;;;;;;9.98;4.80;;;16.70;75.40;;;;;;5134020;27;20015;-37
2021/09/01 09:18:02;;;;;;;11.82;4.85;;;16.80;75.70;;;;;;5132445;27;20034;-37
2021/09/01 09:20:37;;;;;;;15.38;5.05;;;16.90;75.00;;;;;;5133678;27;20019;-37
2021/09/01 09:23:07;;;;;;;13.13;4.53;;;17.00;74.80;;;;;;5131998;27;20110;-38
2021/09/01 09:25:34;;;;;;;13.55;5.03;;;17.00;74.60;;;;;;5132925;27;20023;-37
2021/09/01 09:28:05;;;;;;;11.48;4.57;;;16.80;75.70;;;;;;5133863;27;20526;-37
2021/09/01 09:30:37;;;;;;;7.97;4.15;;;16.80;76.00;;;;;;5132681;27;20030;-38
2021/09/01 09:33:16;;;;;;;10.68;4.88;;;16.80;76.20;;;;;;5133913;27;20080;-37
2021/09/01 09:36:00;;;;;;;10.05;5.03;;;16.80;76.20;;;;;;5133796;27;20031;-38
2021/09/01 09:38:30;;;;;;;14.50;5.88;;;16.90;75.70;;;;;;5131895;27;20027;-36
2021/09/01 09:40:56;;;;;;;11.10;4.90;;;16.90;75.30;;;;;;5133144;27;20023;-38
2021/09/01 09:43:24;;;;;;;11.68;4.15;;;16.90;75.20;;;;;;5133656;27;20026;-38
2021/09/01 09:46:00;;;;;;;6.43;4.30;;;17.00;74.80;;;;;;5132165;27;20023;-38
2021/09/01 09:48:30;;;;;;;10.13;4.03;;;17.00;74.20;;;;;;5133785;27;20035;-42
2021/09/01 09:50:56;;;;;;;11.97;4.30;;;17.00;73.10;;;;;;5133773;27;20030;-38
2021/09/01 09:53:39;;;;;;;6.03;3.28;;;17.10;73.70;;;;;;5131909;27;20043;-37
2021/09/01 09:56:14;;;;;;;7.78;3.78;;;17.30;73.50;;;;;;5133493;27;20023;-37
2021/09/01 09:58:43;;;;;;;9.98;3.63;;;17.30;72.70;;;;;;5133821;27;20027;-37
2021/09/01 10:01:10;;;;;;;11.20;3.15;;;17.50;71.90;;;;;;5133389;27;20047;-38
2021/09/01 10:03:37;;;;;;;7.88;3.75;;;17.70;71.30;;;;;;5133665;28;20019;-37
2021/09/01 10:06:05;;;;;;;8.30;3.88;;;17.70;70.70;;;;;;5133380;28;20015;-37
2021/09/01 10:08:32;;;;;;;10.00;3.35;;;17.70;71.00;;;;;;5131581;28;20027;-37
2021/09/01 10:11:00;;;;;;;8.05;3.65;;;17.60;71.30;;;;;;5132869;28;20104;-37
2021/09/01 10:13:31;;;;;;;11.23;4.97;;;17.60;72.20;;;;;;5133625;27;20123;-38
2021/09/01 10:16:22;;;;;;;7.50;4.22;;;17.80;71.30;;;;;;5133129;28;20459;-37
2021/09/01 10:19:01;;;;;;;13.18;5.00;;;18.10;70.30;;;;;;5118123;28;20035;-38
2021/09/01 10:21:30;;;;;;;12.35;4.65;;;18.10;70.70;;;;;;5133137;28;20027;-37
2021/09/01 10:23:56;;;;;;;9.63;5.18;;;18.20;70.80;;;;;;5133518;28;20027;-36
2021/09/01 10:26:33;;;;;;;16.00;5.78;;;18.00;71.10;;;;;;5131716;28;20023;-36
2021/09/01 10:29:00;;;;;;;18.42;5.85;;;17.70;72.50;;;;;;5132978;28;20051;-38
2021/09/01 10:31:31;;;;;;;8.85;5.00;;;17.40;73.50;;;;;;5130698;28;20023;-39
2021/09/01 10:34:19;;;;;;;17.02;5.05;;;17.20;74.30;;;;;;5131722;28;20405;-36
2021/09/01 10:36:49;;;;;;;9.10;4.65;;;17.20;74.10;;;;;;5133448;27;20015;-37
2021/09/01 10:39:35;;;;;;;15.98;6.00;;;17.40;73.00;;;;;;5133236;28;20031;-37
2021/09/01 10:42:37;;;;;;;12.98;4.25;;;17.30;73.20;;;;;;5134120;27;20035;-37
2021/09/01 10:45:11;;;;;;;11.23;4.63;;;17.30;72.70;;;;;;5136666;27;20031;-37
2021/09/01 10:47:54;;;;;;;15.00;5.18;;;17.10;73.90;;;;;;5136983;27;20370;-38
2021/09/01 10:50:44;;;;;;;11.40;5.22;;;17.10;74.60;;;;;;5137338;27;20097;-42
2021/09/01 10:53:29;;;;;;;14.27;5.53;;;17.20;74.70;;;;;;5143178;27;20043;-38
2021/09/01 10:56:12;;;;;;;16.23;5.72;;;17.30;74.70;;;;;;5157736;27;20385;-37
2021/09/01 10:58:40;;;;;;;12.25;5.57;;;17.50;73.30;;;;;;5157581;27;20030;-37
2021/09/01 11:01:18;;;;;;;15.25;7.75;;;17.40;74.00;;;;;;5157342;27;20022;-40
2021/09/01 11:03:53;;;;;;;8.98;4.68;;;17.40;73.50;;;;;;5157455;27;20466;-37
2021/09/01 11:06:22;;;;;;;11.27;4.88;;;17.40;72.80;;;;;;5156735;27;20019;-36
2021/09/01 11:09:08;;;;;;;11.48;4.30;;;17.50;72.50;;;;;;5157336;27;20027;-37
2021/09/01 11:11:44;;;;;;;10.68;4.40;;;17.40;71.80;;;;;;5157578;27;20470;-37
2021/09/01 11:14:13;;;;;;;10.27;4.15;;;17.30;71.90;;;;;;5157525;27;20022;-37
2021/09/01 11:16:39;;;;;;;12.25;4.97;;;17.20;72.00;;;;;;5138338;27;20042;-37
2021/09/01 11:19:09;;;;;;;8.00;4.30;;;17.30;72.20;;;;;;5157259;27;20027;-37
2021/09/01 11:21:45;;;;;;;6.38;4.50;;;17.30;71.70;;;;;;5140889;27;20019;-39
2021/09/01 11:24:14;;;;;;;13.35;6.03;;;17.30;72.10;;;;;;5138738;27;20026;-38
2021/09/01 11:26:40;;;;;;;10.93;4.80;;;17.30;73.20;;;;;;5157254;27;20029;-39
2021/09/01 11:29:07;;;;;;;14.68;5.45;;;17.40;72.90;;;;;;5157258;27;20264;-38
2021/09/01 11:31:42;;;;;;;10.48;5.00;;;17.40;73.30;;;;;;5156994;27;20030;-37
2021/09/01 11:34:09;;;;;;;9.45;4.53;;;17.50;73.00;;;;;;5156979;27;20364;-38
2021/09/01 11:36:35;;;;;;;17.45;5.75;;;17.50;72.00;;;;;;5156546;27;20468;-38
2021/09/01 11:39:22;;;;;;;13.20;5.07;;;17.40;72.60;;;;;;5121005;27;20138;-38
2021/09/01 11:42:03;;;;;;;9.15;3.90;;;17.40;71.80;;;;;;5156460;27;20110;-42
2021/09/01 11:44:29;;;;;;;11.40;4.47;;;17.60;71.20;;;;;;5137869;27;20022;-38
2021/09/01 11:46:55;;;;;;;14.07;4.82;;;17.50;71.40;;;;;;5156119;27;20474;-42
2021/09/01 11:49:24;;;;;;;13.10;7.30;;;17.70;70.00;;;;;;5156370;27;20433;-37
2021/09/01 11:51:50;;;;;;;13.50;5.50;;;17.90;69.50;;;;;;5137907;27;20015;-37
2021/09/01 11:54:17;;;;;;;10.15;3.95;;;18.40;68.40;;;;;;5155762;27;20047;-37
2021/09/01 11:56:42;;;;;;;8.75;4.38;;;18.50;67.50;;;;;;5156477;27;20083;-39
2021/09/01 11:59:11;;;;;;;7.93;4.03;;;18.30;67.40;;;;;;5137870;27;20031;-38
2021/09/01 12:01:50;;;;;;;18.55;4.97;;;18.20;68.00;;;;;;5156225;27;20430;-38
2021/09/01 12:04:17;;;;;;;9.57;5.00;;;18.10;68.10;;;;;;5156178;27;20014;-38
2021/09/01 12:06:45;;;;;;;9.32;5.38;;;18.20;67.90;;;;;;5156220;27;20050;-38
2021/09/01 12:09:16;;;;;;;9.27;4.38;;;18.30;67.70;;;;;;5156346;27;20019;-37
2021/09/01 12:11:54;;;;;;;10.25;4.40;;;18.20;68.70;;;;;;5156385;27;20035;-37
2021/09/01 12:14:24;;;;;;;9.77;5.30;;;18.10;68.90;;;;;;5155736;27;20030;-37
2021/09/01 12:16:51;;;;;;;;;;;18.10;68.90;;;;;;5137718;27;20387;-36
2021/09/01 12:19:18;;;;;;;9.82;4.90;;;18.00;69.00;;;;;;5155899;27;19903;-37
2021/09/01 12:21:49;;;;;;;14.82;6.00;;;17.80;68.80;;;;;;5137288;27;20023;-38
2021/09/01 12:24:19;;;;;;;14.88;6.82;;;17.80;68.80;;;;;;5155733;27;20546;-38
2021/09/01 12:26:54;;;;;;;11.43;5.78;;;18.00;69.40;;;;;;5137160;27;20362;-38
2021/09/01 12:29:24;;;;;;;12.60;7.03;;;18.30;68.20;;;;;;5155602;27;20019;-38
2021/09/01 12:31:51;;;;;;;13.38;7.95;;;18.40;67.30;;;;;;5155771;27;20470;-37
2021/09/01 12:34:23;;;;;;;16.02;7.25;;;18.40;66.30;;;;;;5156325;27;20031;-39
2021/09/01 12:36:57;;;;;;;18.90;7.93;;;18.30;67.50;;;;;;5155571;27;20027;-37
2021/09/01 12:39:23;;;;;;;12.65;7.95;;;18.10;67.90;;;;;;5156015;27;20109;-38
2021/09/01 12:41:48;;;;;;;11.80;7.30;;;18.30;67.90;;;;;;5137461;27;20168;-38